Terminal Aerodrome Forecast
Issued by NWS

Current Version | Previous Version | Text Only | Print | Product List | Glossary On
Versions: 1 2 3 4 5 6 7 8 9 10 11 12 13 14 15 16 17 18 19
378
FTUS44 KOHX 110520
TAFCKV
TAF
KCKV 110520Z 1106/1206 14009KT P6SM FEW060
     FM111200 17007KT P6SM SCT170 WS020/20035KT
     FM112100 18011G17KT P6SM OVC035
     FM120100 19011G18KT 5SM -RA OVC015
     FM120300 19013G20KT 2SM RA OVC007=

USA.gov is the U.S. government's official web portal to all federal, state and local government web resources and services.